createdAt,value
2023-01-30T00:01:17.196Z,100745.59
2023-01-30T00:04:07.341Z,100738.78
2023-01-30T00:06:54.924Z,100761.06
2023-01-30T00:09:42.639Z,100708.16
2023-01-30T00:12:30.346Z,100716.06
2023-01-30T00:15:18.162Z,100714.94
2023-01-30T00:18:06.075Z,100761.59
2023-01-30T00:21:00.755Z,100733.72
2023-01-30T00:23:48.490Z,100757.59
2023-01-30T00:26:36.328Z,100744.56
2023-01-30T00:29:23.985Z,100761.06
2023-01-30T00:32:11.704Z,100754.00
2023-01-30T00:35:01.196Z,100668.84
2023-01-30T00:37:49.244Z,100746.41
2023-01-30T00:40:37.059Z,100713.34
2023-01-30T00:43:43.871Z,100742.09
2023-01-30T00:46:52.642Z,100720.66
2023-01-30T00:49:40.315Z,100737.19
2023-01-30T00:52:28.191Z,100730.38
2023-01-30T00:55:16.421Z,100713.06
2023-01-30T00:58:05.011Z,100732.00
2023-01-30T01:00:53.362Z,100724.94
2023-01-30T01:03:41.051Z,100732.59
2023-01-30T01:06:28.698Z,100727.16
2023-01-30T01:09:17.458Z,100704.34
2023-01-30T01:12:05.822Z,100714.94
2023-01-30T01:14:53.473Z,100705.41
2023-01-30T01:17:42.869Z,100671.19
2023-01-30T01:20:31.207Z,100674.19
2023-01-30T01:23:19.149Z,100694.81
2023-01-30T01:26:06.819Z,100671.22
2023-01-30T01:28:59.432Z,100689.34
2023-01-30T01:31:47.211Z,100666.53
2023-01-30T01:34:36.616Z,100671.75
2023-01-30T01:37:24.439Z,100683.69
2023-01-30T01:40:40.448Z,100673.38
2023-01-30T01:43:30.947Z,100685.31
2023-01-30T01:46:25.835Z,100681.19
2023-01-30T01:49:23.175Z,100581.16
2023-01-30T01:52:15.754Z,100673.03
2023-01-30T01:55:07.643Z,100674.66
2023-01-30T01:58:03.720Z,100678.16
2023-01-30T02:00:52.396Z,100666.78
2023-01-30T02:03:44.999Z,100669.50
2023-01-30T02:06:32.989Z,100673.81
2023-01-30T02:09:22.015Z,100660.25
2023-01-30T02:12:11.857Z,100645.31
2023-01-30T02:15:01.079Z,100665.59
2023-01-30T02:17:48.965Z,100661.25
2023-01-30T02:21:10.534Z,100656.34
2023-01-30T02:24:22.472Z,100661.28
2023-01-30T02:27:19.641Z,100653.41
2023-01-30T02:30:45.041Z,100628.78
2023-01-30T02:33:47.256Z,100650.69
2023-01-30T02:37:15.782Z,100657.22
2023-01-30T02:40:21.935Z,100672.16
2023-01-30T02:43:25.141Z,100661.03
2023-01-30T02:46:25.035Z,100622.00
2023-01-30T02:49:21.708Z,100661.03
2023-01-30T02:52:13.200Z,100635.78
2023-01-30T02:55:02.826Z,100658.56
2023-01-30T02:57:50.709Z,100620.56
2023-01-30T03:00:53.276Z,100649.88
2023-01-30T03:04:26.754Z,100623.03
2023-01-30T03:07:37.563Z,100647.50
2023-01-30T03:10:30.344Z,100654.00
2023-01-30T03:13:53.587Z,100636.34
2023-01-30T03:16:44.028Z,100650.16
2023-01-30T03:19:32.850Z,100634.44
2023-01-30T03:22:22.385Z,100649.34
2023-01-30T03:25:14.162Z,100648.25
2023-01-30T03:28:04.113Z,100621.69
2023-01-30T03:30:51.819Z,100655.59
2023-01-30T03:33:40.722Z,100649.34
2023-01-30T03:36:30.821Z,100647.72
2023-01-30T03:39:20.764Z,100634.44
2023-01-30T03:42:18.390Z,100629.53
2023-01-30T03:45:06.496Z,100640.97
2023-01-30T03:47:54.239Z,100625.44
2023-01-30T03:50:41.931Z,100617.91
2023-01-30T03:53:32.050Z,100629.00
2023-01-30T03:56:19.959Z,100637.94
2023-01-30T03:59:07.716Z,100632.81
2023-01-30T04:02:05.493Z,100640.41
2023-01-30T04:04:54.007Z,100631.97
2023-01-30T04:07:42.033Z,100645.53
2023-01-30T04:10:31.049Z,100632.25
2023-01-30T04:13:18.893Z,100636.63
2023-01-30T04:16:22.103Z,100626.06
2023-01-30T04:19:32.377Z,100629.81
2023-01-30T04:22:19.935Z,100595.91
2023-01-30T04:25:08.886Z,100626.78
2023-01-30T04:27:57.619Z,100622.16
2023-01-30T04:30:49.796Z,100597.53
2023-01-30T04:34:09.787Z,100611.34
2023-01-30T04:36:59.776Z,100611.09
2023-01-30T04:39:51.622Z,100611.03
2023-01-30T04:42:39.474Z,100606.50
2023-01-30T04:45:46.704Z,100619.22
2023-01-30T04:48:38.042Z,100608.31
2023-01-30T04:51:25.773Z,100572.00
2023-01-30T04:54:13.710Z,100584.81
2023-01-30T04:57:02.397Z,100596.41
2023-01-30T05:00:01.573Z,100594.81
2023-01-30T05:02:49.812Z,100583.41
2023-01-30T05:05:37.769Z,100607.81
2023-01-30T05:08:29.454Z,100600.25
2023-01-30T05:11:17.232Z,100618.69
2023-01-30T05:14:12.439Z,100619.81
2023-01-30T05:17:00.287Z,100609.78
2023-01-30T05:19:47.963Z,100611.63
2023-01-30T05:22:37.977Z,100618.19
2023-01-30T05:25:25.670Z,100620.59
2023-01-30T05:28:13.419Z,100622.28
2023-01-30T05:31:14.510Z,100599.72
2023-01-30T05:34:02.274Z,100618.41
2023-01-30T05:36:49.925Z,100629.03
2023-01-30T05:39:38.183Z,100626.56
2023-01-30T05:42:25.841Z,100606.31
2023-01-30T05:45:13.501Z,100593.25
2023-01-30T05:48:01.582Z,100620.38
2023-01-30T05:50:54.412Z,100624.72
2023-01-30T05:53:42.067Z,100619.81
2023-01-30T05:56:33.445Z,100626.56
2023-01-30T05:59:21.209Z,100627.16
2023-01-30T06:02:11.096Z,100621.94
2023-01-30T06:04:58.841Z,100600.88
2023-01-30T06:07:46.569Z,100621.75
2023-01-30T06:10:35.257Z,100622.78
2023-01-30T06:13:22.984Z,100621.47
2023-01-30T06:16:13.511Z,100621.41
2023-01-30T06:19:02.360Z,100626.31
2023-01-30T06:21:52.785Z,100632.34
2023-01-30T06:24:43.336Z,100550.75
2023-01-30T06:27:31.982Z,100643.16
2023-01-30T06:30:19.863Z,100633.06
2023-01-30T06:33:25.888Z,100638.25
2023-01-30T06:36:16.048Z,100637.97
2023-01-30T06:39:03.864Z,100644.47
2023-01-30T06:41:51.764Z,100645.53
2023-01-30T06:44:39.692Z,100652.59
2023-01-30T06:47:27.392Z,100654.78
2023-01-30T06:50:15.988Z,100650.91
2023-01-30T06:53:06.423Z,100648.50
2023-01-30T06:55:54.716Z,100660.41
2023-01-30T06:58:42.465Z,100652.75
2023-01-30T07:01:30.174Z,100651.94
2023-01-30T07:04:18.133Z,100644.38
2023-01-30T07:07:07.088Z,100655.75
2023-01-30T07:10:06.873Z,100647.56
2023-01-30T07:12:55.710Z,100649.19
2023-01-30T07:15:44.734Z,100628.03
2023-01-30T07:18:32.325Z,100648.34
2023-01-30T07:21:20.037Z,100647.25
2023-01-30T07:24:08.234Z,100640.44
2023-01-30T07:26:55.980Z,100622.22
2023-01-30T07:29:44.899Z,100642.41
2023-01-30T07:32:32.645Z,100638.09
2023-01-30T07:35:21.410Z,100644.16
2023-01-30T07:38:09.315Z,100640.94
2023-01-30T07:40:58.864Z,100626.78
2023-01-30T07:43:48.818Z,100634.94
2023-01-30T07:46:36.521Z,100633.59
2023-01-30T07:49:24.502Z,100635.84
2023-01-30T07:52:12.124Z,100609.53
2023-01-30T07:55:01.469Z,100629.59
2023-01-30T07:57:49.323Z,100616.91
2023-01-30T08:00:37.089Z,100629.25
2023-01-30T08:03:24.742Z,100619.25
2023-01-30T08:06:14.132Z,100606.69
2023-01-30T08:09:01.751Z,100618.13
2023-01-30T08:11:49.441Z,100622.47
2023-01-30T08:14:37.062Z,100595.69
2023-01-30T08:17:24.896Z,100605.88
2023-01-30T08:20:17.049Z,100610.06
2023-01-30T08:23:05.453Z,100586.03
2023-01-30T08:25:57.772Z,100610.81
2023-01-30T08:28:45.581Z,100587.44
2023-01-30T08:31:33.221Z,100603.66
2023-01-30T08:34:20.899Z,100592.06
2023-01-30T08:37:08.601Z,100601.91
2023-01-30T08:39:59.314Z,100586.94
2023-01-30T08:42:46.976Z,100599.81
2023-01-30T08:45:34.975Z,100584.63
2023-01-30T08:48:23.617Z,100605.31
2023-01-30T08:51:11.723Z,100614.13
2023-01-30T08:53:59.755Z,100601.91
2023-01-30T08:56:47.596Z,100601.94
2023-01-30T08:59:35.167Z,100604.25
2023-01-30T09:02:23.013Z,100607.25
2023-01-30T09:05:14.088Z,100576.94
2023-01-30T09:08:01.655Z,100597.75
2023-01-30T09:10:49.296Z,100601.72
2023-01-30T09:13:38.979Z,100587.59
2023-01-30T09:16:26.589Z,100601.25
2023-01-30T09:19:14.744Z,100607.56
2023-01-30T09:22:02.305Z,100598.88
2023-01-30T09:24:55.671Z,100595.69
2023-01-30T09:27:44.747Z,100601.16
2023-01-30T09:30:32.651Z,100579.63
2023-01-30T09:33:20.697Z,100586.53
2023-01-30T09:36:11.699Z,100583.59
2023-01-30T09:38:59.423Z,100550.94
2023-01-30T09:41:56.201Z,100564.97
2023-01-30T09:44:47.840Z,100562.88
2023-01-30T09:47:46.075Z,100556.53
2023-01-30T09:50:48.547Z,100566.63
2023-01-30T09:53:36.510Z,100556.66
2023-01-30T09:56:24.546Z,100542.72
2023-01-30T09:59:24.037Z,100531.91
2023-01-30T10:02:45.448Z,100542.38
2023-01-30T10:05:40.889Z,100505.44
2023-01-30T10:09:10.190Z,100527.13
2023-01-30T10:12:04.757Z,100522.00
2023-01-30T10:15:07.939Z,100517.06
2023-01-30T10:18:18.488Z,100507.03
2023-01-30T10:21:33.019Z,100484.09
2023-01-30T10:24:32.463Z,100500.44
2023-01-30T10:27:22.408Z,100425.19
2023-01-30T10:30:16.661Z,100467.50
2023-01-30T10:33:18.936Z,100452.09
2023-01-30T10:36:18.905Z,100468.47
2023-01-30T10:39:21.367Z,100448.19
2023-01-30T10:42:22.717Z,100466.53
2023-01-30T10:45:22.653Z,100453.56
2023-01-30T10:48:16.463Z,100455.53
2023-01-30T10:51:10.753Z,100436.34
2023-01-30T10:54:14.041Z,100438.44
2023-01-30T10:57:26.641Z,100430.13
2023-01-30T11:00:35.607Z,100409.53
2023-01-30T11:03:31.860Z,100419.97
2023-01-30T11:06:24.235Z,100398.72
2023-01-30T11:09:11.704Z,100399.75
2023-01-30T11:12:00.582Z,100399.63
2023-01-30T11:14:58.956Z,100381.50
2023-01-30T11:17:49.043Z,100363.75
2023-01-30T11:20:48.022Z,100359.69
2023-01-30T11:23:41.407Z,100330.47
2023-01-30T11:26:46.817Z,100347.66
2023-01-30T11:29:38.065Z,100350.47
2023-01-30T11:32:28.594Z,100334.72
2023-01-30T11:35:19.226Z,100271.94
2023-01-30T11:38:41.024Z,100335.31
2023-01-30T11:41:29.820Z,100325.78
2023-01-30T11:44:17.398Z,100325.31
2023-01-30T11:47:10.397Z,100331.38
2023-01-30T11:50:03.702Z,100305.59
2023-01-30T11:53:16.281Z,100307.81
2023-01-30T11:56:24.587Z,100306.41
2023-01-30T11:59:37.055Z,100304.19
2023-01-30T12:02:32.644Z,100297.13
2023-01-30T12:05:36.904Z,100288.72
2023-01-30T12:08:47.088Z,100258.72
2023-01-30T12:11:40.454Z,100288.00
2023-01-30T12:14:39.788Z,100268.91
2023-01-30T12:17:49.152Z,100268.19
2023-01-30T12:21:00.076Z,100261.03
2023-01-30T12:24:01.111Z,100261.22
2023-01-30T12:27:00.802Z,100238.00
2023-01-30T12:30:11.376Z,100218.91
2023-01-30T12:33:05.052Z,100233.34
2023-01-30T12:36:01.550Z,100215.25
2023-01-30T12:39:12.669Z,100229.06
2023-01-30T12:42:34.025Z,100225.75
2023-01-30T12:45:26.985Z,100222.38
2023-01-30T12:48:38.286Z,100213.94
2023-01-30T12:51:49.572Z,100182.72
2023-01-30T12:55:21.552Z,100204.00
2023-01-30T12:58:25.128Z,100209.06
2023-01-30T13:01:46.448Z,100199.16
2023-01-30T13:05:01.726Z,100197.56
2023-01-30T13:08:09.261Z,100192.72
2023-01-30T13:11:02.806Z,100201.59
2023-01-30T13:13:50.423Z,100166.47
2023-01-30T13:16:58.071Z,100194.81
2023-01-30T13:20:13.376Z,100194.44
2023-01-30T13:23:27.469Z,100113.44
2023-01-30T13:26:21.415Z,100163.38
2023-01-30T13:29:42.286Z,100182.00
2023-01-30T13:32:51.112Z,100166.63
2023-01-30T13:35:46.869Z,100176.53
2023-01-30T13:38:36.837Z,100164.72
2023-01-30T13:41:25.749Z,100153.75
2023-01-30T13:44:25.556Z,100156.69
2023-01-30T13:47:40.941Z,100162.66
2023-01-30T13:51:10.262Z,100155.66
2023-01-30T13:54:29.777Z,100133.47
2023-01-30T13:57:38.064Z,100155.69
2023-01-30T14:00:34.101Z,100162.25
2023-01-30T14:03:26.381Z,100163.38
2023-01-30T14:06:22.624Z,100153.66
2023-01-30T14:09:24.530Z,100153.66
2023-01-30T14:12:27.856Z,100150.72
2023-01-30T14:15:15.513Z,100146.78
2023-01-30T14:18:36.770Z,100138.00
2023-01-30T14:21:25.601Z,100143.38
2023-01-30T14:24:23.179Z,100106.81
2023-01-30T14:27:29.956Z,100123.16
2023-01-30T14:30:34.995Z,100113.88
2023-01-30T14:33:22.644Z,100120.31
2023-01-30T14:36:16.265Z,100110.81
2023-01-30T14:39:41.063Z,100109.81
2023-01-30T14:42:31.290Z,100118.09
2023-01-30T14:45:56.398Z,100109.50
2023-01-30T14:49:01.247Z,100109.91
2023-01-30T14:54:51.576Z,100079.19
2023-01-30T14:57:40.534Z,100108.25
2023-01-30T15:00:32.626Z,100106.59
2023-01-30T15:03:21.047Z,100079.84
2023-01-30T15:06:08.788Z,100104.50
2023-01-30T15:08:57.234Z,100073.81
2023-01-30T15:12:01.791Z,100093.00
2023-01-30T15:14:58.492Z,100099.84
2023-01-30T15:18:08.282Z,100100.22
2023-01-30T15:21:20.410Z,100048.28
2023-01-30T15:24:46.776Z,100089.75
2023-01-30T15:27:40.395Z,100075.22
2023-01-30T15:30:49.734Z,100078.19
2023-01-30T15:33:49.009Z,100042.94
2023-01-30T15:36:37.353Z,100073.50
2023-01-30T15:39:27.162Z,100060.13
2023-01-30T15:42:15.830Z,100073.16
2023-01-30T15:45:14.991Z,100069.81
2023-01-30T15:48:23.802Z,100073.47
2023-01-30T15:51:18.442Z,100061.03
2023-01-30T15:54:11.563Z,100065.69
2023-01-30T15:57:01.025Z,100066.94
2023-01-30T15:59:51.929Z,100067.00
2023-01-30T16:02:44.451Z,100058.03
2023-01-30T16:05:32.726Z,100058.53
2023-01-30T16:08:27.054Z,100052.38
2023-01-30T16:11:39.151Z,100030.69
2023-01-30T16:14:38.049Z,100047.81
2023-01-30T16:17:31.866Z,100026.44
2023-01-30T16:20:19.565Z,100026.88
2023-01-30T16:23:31.315Z,100048.41
2023-01-30T16:26:24.532Z,100026.06
2023-01-30T16:29:25.176Z,100038.41
2023-01-30T16:32:15.047Z,100036.50
2023-01-30T16:35:27.149Z,100038.66
2023-01-30T16:38:37.430Z,100040.84
2023-01-30T16:41:43.615Z,100031.16
2023-01-30T16:44:32.831Z,100020.28
2023-01-30T16:47:31.815Z,100008.44
2023-01-30T16:50:23.549Z,100012.84
2023-01-30T16:53:19.361Z,99990.75
2023-01-30T16:56:11.087Z,100016.50
2023-01-30T16:59:01.170Z,100004.41
2023-01-30T17:01:49.481Z,100008.91
2023-01-30T17:04:43.457Z,99976.78
2023-01-30T17:07:40.905Z,99996.69
2023-01-30T17:10:29.129Z,99989.13
2023-01-30T17:13:40.034Z,100008.88
2023-01-30T17:16:35.490Z,99995.19
2023-01-30T17:19:23.203Z,100001.44
2023-01-30T17:22:26.828Z,99995.47
2023-01-30T17:25:41.110Z,99987.38
2023-01-30T17:28:37.529Z,99989.03
2023-01-30T17:31:25.576Z,99980.19
2023-01-30T17:34:24.560Z,99980.47
2023-01-30T17:37:24.742Z,99973.88
2023-01-30T17:43:22.028Z,99938.28
2023-01-30T17:46:13.865Z,99970.72
2023-01-30T17:49:01.671Z,99969.09
2023-01-30T17:51:53.077Z,99970.72
2023-01-30T17:54:41.195Z,99965.59
2023-01-30T17:57:29.228Z,99954.25
2023-01-30T18:00:22.883Z,99966.97
2023-01-30T18:03:14.931Z,99965.28
2023-01-30T18:06:02.804Z,99931.00
2023-01-30T18:08:54.149Z,99943.75
2023-01-30T18:11:44.979Z,99945.31
2023-01-30T18:14:32.887Z,99958.41
2023-01-30T18:17:21.425Z,99944.06
2023-01-30T18:20:10.968Z,99910.44
2023-01-30T18:22:58.716Z,99943.88
2023-01-30T18:25:46.364Z,99931.91
2023-01-30T18:28:34.040Z,99918.97
2023-01-30T18:31:24.160Z,99940.25
2023-01-30T18:34:12.198Z,99923.31
2023-01-30T18:37:08.314Z,99931.16
2023-01-30T18:39:56.082Z,99921.66
2023-01-30T18:42:46.126Z,99926.19
2023-01-30T18:45:34.182Z,99884.44
2023-01-30T18:48:30.667Z,99901.59
2023-01-30T18:51:24.612Z,99883.03
2023-01-30T18:54:12.271Z,99908.28
2023-01-30T18:57:06.530Z,99886.34
2023-01-30T18:59:54.204Z,99884.78
2023-01-30T19:02:46.214Z,99898.31
2023-01-30T19:05:39.262Z,99905.06
2023-01-30T19:08:33.951Z,99882.09
2023-01-30T19:11:44.178Z,99885.84
2023-01-30T19:14:32.903Z,99892.78
2023-01-30T19:17:29.295Z,99900.66
2023-01-30T19:20:19.720Z,99892.09
2023-01-30T19:23:08.990Z,99895.75
2023-01-30T19:26:03.563Z,99894.41
2023-01-30T19:28:52.499Z,99895.34
2023-01-30T19:31:40.815Z,99900.28
2023-01-30T19:34:28.592Z,99895.00
2023-01-30T19:37:16.542Z,99888.69
2023-01-30T19:40:09.123Z,99884.94
2023-01-30T19:43:09.238Z,99887.06
2023-01-30T19:45:59.900Z,99904.16
2023-01-30T19:48:48.863Z,99890.75
2023-01-30T19:51:36.674Z,99867.25
2023-01-30T19:54:24.413Z,99857.03
2023-01-30T19:57:12.042Z,99874.44
2023-01-30T19:59:59.711Z,99859.72
2023-01-30T20:02:48.028Z,99873.63
2023-01-30T20:05:35.840Z,99867.41
2023-01-30T20:08:32.362Z,99870.41
2023-01-30T20:11:23.648Z,99865.13
2023-01-30T20:14:11.536Z,99865.19
2023-01-30T20:16:59.199Z,99835.41
2023-01-30T20:19:49.212Z,99863.53
2023-01-30T20:22:36.882Z,99865.13
2023-01-30T20:25:24.807Z,99876.28
2023-01-30T20:28:12.445Z,99872.47
2023-01-30T20:31:01.176Z,99865.72
2023-01-30T20:33:52.843Z,99861.91
2023-01-30T20:36:41.409Z,99855.09
2023-01-30T20:39:29.707Z,99854.56
2023-01-30T20:42:18.953Z,99850.66
2023-01-30T20:45:07.221Z,99844.00
2023-01-30T20:47:54.852Z,99817.38
2023-01-30T20:50:42.876Z,99847.38
2023-01-30T20:53:30.656Z,99838.13
2023-01-30T20:56:19.716Z,99828.09
2023-01-30T20:59:08.241Z,99842.25
2023-01-30T21:01:57.999Z,99807.75
2023-01-30T21:04:45.665Z,99840.75
2023-01-30T21:07:35.904Z,99818.63
2023-01-30T21:10:23.580Z,99838.44
2023-01-30T21:13:11.211Z,99842.81
2023-01-30T21:16:08.602Z,99837.47
2023-01-30T21:19:00.694Z,99825.66
2023-01-30T21:21:58.054Z,99847.72
2023-01-30T21:24:45.711Z,99850.97
2023-01-30T21:27:33.586Z,99831.94
2023-01-30T21:30:21.286Z,99859.34
2023-01-30T21:33:08.894Z,99868.72
2023-01-30T21:36:03.829Z,99848.69
2023-01-30T21:39:09.869Z,99864.78
2023-01-30T21:41:57.586Z,99877.09
2023-01-30T21:44:45.273Z,99878.41
2023-01-30T21:47:33.165Z,99874.84
2023-01-30T21:50:21.225Z,99855.03
2023-01-30T21:53:10.312Z,99864.84
2023-01-30T21:56:04.625Z,99875.94
2023-01-30T21:58:52.855Z,99866.59
2023-01-30T22:01:41.899Z,99871.66
2023-01-30T22:04:29.542Z,99862.41
2023-01-30T22:07:17.207Z,99869.91
2023-01-30T22:10:05.181Z,99855.59
2023-01-30T22:12:52.951Z,99861.47
2023-01-30T22:15:40.579Z,99863.88
2023-01-30T22:18:28.321Z,99858.81
2023-01-30T22:21:19.397Z,99841.88
2023-01-30T22:24:08.706Z,99868.13
2023-01-30T22:26:56.497Z,99855.81
2023-01-30T22:29:44.118Z,99829.16
2023-01-30T22:32:34.746Z,99842.66
2023-01-30T22:35:22.463Z,99828.88
2023-01-30T22:38:10.202Z,99846.72
2023-01-30T22:41:08.906Z,99840.31
2023-01-30T22:43:59.182Z,99839.50
2023-01-30T22:46:46.890Z,99838.16
2023-01-30T22:49:34.592Z,99843.97
2023-01-30T22:52:22.243Z,99832.84
2023-01-30T22:55:10.141Z,99828.28
2023-01-30T22:57:57.832Z,99771.16
2023-01-30T23:00:45.535Z,99778.75
2023-01-30T23:03:33.366Z,99804.06
2023-01-30T23:06:21.284Z,99806.41
2023-01-30T23:09:13.730Z,99805.00
2023-01-30T23:12:20.170Z,99773.97
2023-01-30T23:15:08.266Z,99769.03
2023-01-30T23:18:17.037Z,99800.03
2023-01-30T23:21:11.272Z,99783.81
2023-01-30T23:24:00.722Z,99771.31
2023-01-30T23:26:50.507Z,99790.94
2023-01-30T23:29:38.130Z,99776.53
2023-01-30T23:32:25.782Z,99787.38
2023-01-30T23:35:13.488Z,99773.75
2023-01-30T23:38:16.717Z,99770.56
2023-01-30T23:41:05.458Z,99775.06
2023-01-30T23:43:53.997Z,99771.59
2023-01-30T23:46:42.712Z,99775.91
2023-01-30T23:49:30.375Z,99757.50
2023-01-30T23:52:18.039Z,99773.69
2023-01-30T23:55:06.996Z,99766.88
2023-01-30T23:57:57.165Z,99771.31
